sensor_id;sensor_type;location;lat;lon;timestamp;P1;durP1;ratioP1;P2;durP2;ratioP2
18933;SDS011;9599;53.706;10.384;2022-10-10T00:01:13;3.67;;;2.00;;
18933;SDS011;9599;53.706;10.384;2022-10-10T00:03:41;6.30;;;2.40;;
18933;SDS011;9599;53.706;10.384;2022-10-10T00:06:10;4.67;;;2.10;;
18933;SDS011;9599;53.706;10.384;2022-10-10T00:08:38;4.33;;;2.20;;
18933;SDS011;9599;53.706;10.384;2022-10-10T00:11:07;7.33;;;2.30;;
18933;SDS011;9599;53.706;10.384;2022-10-10T00:13:35;5.23;;;2.20;;
18933;SDS011;9599;53.706;10.384;2022-10-10T00:16:03;5.07;;;2.10;;
18933;SDS011;9599;53.706;10.384;2022-10-10T00:18:33;2.70;;;1.93;;
18933;SDS011;9599;53.706;10.384;2022-10-10T00:21:02;7.67;;;2.17;;
18933;SDS011;9599;53.706;10.384;2022-10-10T00:23:30;5.70;;;2.00;;
18933;SDS011;9599;53.706;10.384;2022-10-10T00:25:58;6.83;;;2.10;;
18933;SDS011;9599;53.706;10.384;2022-10-10T00:28:32;6.27;;;2.17;;
18933;SDS011;9599;53.706;10.384;2022-10-10T00:31:03;5.37;;;2.13;;
18933;SDS011;9599;53.706;10.384;2022-10-10T00:33:33;4.27;;;1.80;;
18933;SDS011;9599;53.706;10.384;2022-10-10T00:36:01;6.03;;;2.10;;
18933;SDS011;9599;53.706;10.384;2022-10-10T00:38:29;5.53;;;2.13;;
18933;SDS011;9599;53.706;10.384;2022-10-10T00:40:57;4.77;;;2.00;;
18933;SDS011;9599;53.706;10.384;2022-10-10T00:43:26;4.27;;;2.00;;
18933;SDS011;9599;53.706;10.384;2022-10-10T00:45:54;3.93;;;1.97;;
18933;SDS011;9599;53.706;10.384;2022-10-10T00:48:23;5.37;;;2.33;;
18933;SDS011;9599;53.706;10.384;2022-10-10T00:50:56;5.20;;;2.30;;
18933;SDS011;9599;53.706;10.384;2022-10-10T00:53:27;5.37;;;2.13;;
18933;SDS011;9599;53.706;10.384;2022-10-10T00:55:58;5.07;;;2.17;;
18933;SDS011;9599;53.706;10.384;2022-10-10T00:58:27;3.63;;;2.13;;
18933;SDS011;9599;53.706;10.384;2022-10-10T01:00:55;3.37;;;2.10;;
18933;SDS011;9599;53.706;10.384;2022-10-10T01:03:23;4.10;;;2.10;;
18933;SDS011;9599;53.706;10.384;2022-10-10T01:05:51;5.80;;;2.20;;
18933;SDS011;9599;53.706;10.384;2022-10-10T01:08:20;5.57;;;2.20;;
18933;SDS011;9599;53.706;10.384;2022-10-10T01:10:54;5.07;;;2.10;;
18933;SDS011;9599;53.706;10.384;2022-10-10T01:13:33;4.23;;;2.20;;
18933;SDS011;9599;53.706;10.384;2022-10-10T01:16:06;5.80;;;2.50;;
18933;SDS011;9599;53.706;10.384;2022-10-10T01:18:41;3.87;;;1.90;;
18933;SDS011;9599;53.706;10.384;2022-10-10T01:21:14;6.70;;;2.43;;
18933;SDS011;9599;53.706;10.384;2022-10-10T01:27:16;4.30;;;2.20;;
18933;SDS011;9599;53.706;10.384;2022-10-10T01:29:58;6.90;;;2.17;;
18933;SDS011;9599;53.706;10.384;2022-10-10T01:32:32;3.27;;;2.10;;
18933;SDS011;9599;53.706;10.384;2022-10-10T01:35:12;5.00;;;2.43;;
18933;SDS011;9599;53.706;10.384;2022-10-10T01:37:48;4.67;;;1.93;;
18933;SDS011;9599;53.706;10.384;2022-10-10T01:40:23;4.50;;;2.30;;
18933;SDS011;9599;53.706;10.384;2022-10-10T01:42:57;5.57;;;2.40;;
18933;SDS011;9599;53.706;10.384;2022-10-10T01:45:29;4.53;;;2.33;;
18933;SDS011;9599;53.706;10.384;2022-10-10T01:47:59;5.10;;;2.40;;
18933;SDS011;9599;53.706;10.384;2022-10-10T01:50:30;6.37;;;2.40;;
18933;SDS011;9599;53.706;10.384;2022-10-10T01:53:03;5.00;;;2.30;;
18933;SDS011;9599;53.706;10.384;2022-10-10T01:55:40;6.10;;;2.33;;
18933;SDS011;9599;53.706;10.384;2022-10-10T01:58:21;7.07;;;2.47;;
18933;SDS011;9599;53.706;10.384;2022-10-10T02:01:05;2.87;;;2.10;;
18933;SDS011;9599;53.706;10.384;2022-10-10T02:03:37;8.73;;;2.43;;
18933;SDS011;9599;53.706;10.384;2022-10-10T02:06:11;4.83;;;2.23;;
18933;SDS011;9599;53.706;10.384;2022-10-10T02:08:47;5.43;;;2.57;;
18933;SDS011;9599;53.706;10.384;2022-10-10T02:11:17;9.70;;;2.67;;
18933;SDS011;9599;53.706;10.384;2022-10-10T02:13:47;6.03;;;2.60;;
18933;SDS011;9599;53.706;10.384;2022-10-10T02:16:19;4.20;;;2.30;;
18933;SDS011;9599;53.706;10.384;2022-10-10T02:18:51;4.43;;;2.23;;
18933;SDS011;9599;53.706;10.384;2022-10-10T02:21:22;5.13;;;2.40;;
18933;SDS011;9599;53.706;10.384;2022-10-10T02:23:53;3.93;;;2.10;;
18933;SDS011;9599;53.706;10.384;2022-10-10T02:26:24;4.40;;;2.70;;
18933;SDS011;9599;53.706;10.384;2022-10-10T02:28:55;5.07;;;2.57;;
18933;SDS011;9599;53.706;10.384;2022-10-10T02:31:28;5.03;;;2.60;;
18933;SDS011;9599;53.706;10.384;2022-10-10T02:34:00;4.07;;;2.27;;
18933;SDS011;9599;53.706;10.384;2022-10-10T02:36:34;5.30;;;2.70;;
18933;SDS011;9599;53.706;10.384;2022-10-10T02:39:02;5.03;;;2.50;;
18933;SDS011;9599;53.706;10.384;2022-10-10T02:41:31;4.90;;;2.40;;
18933;SDS011;9599;53.706;10.384;2022-10-10T02:44:01;6.57;;;2.80;;
18933;SDS011;9599;53.706;10.384;2022-10-10T02:46:31;5.37;;;2.60;;
18933;SDS011;9599;53.706;10.384;2022-10-10T02:48:59;5.80;;;2.47;;
18933;SDS011;9599;53.706;10.384;2022-10-10T02:51:28;4.27;;;2.47;;
18933;SDS011;9599;53.706;10.384;2022-10-10T02:53:56;7.00;;;2.40;;
18933;SDS011;9599;53.706;10.384;2022-10-10T02:56:24;5.67;;;2.60;;
18933;SDS011;9599;53.706;10.384;2022-10-10T02:58:52;4.97;;;2.60;;
18933;SDS011;9599;53.706;10.384;2022-10-10T03:01:20;4.87;;;2.80;;
18933;SDS011;9599;53.706;10.384;2022-10-10T03:03:49;4.10;;;2.20;;
18933;SDS011;9599;53.706;10.384;2022-10-10T03:06:17;4.90;;;2.47;;
18933;SDS011;9599;53.706;10.384;2022-10-10T03:08:45;5.90;;;2.47;;
18933;SDS011;9599;53.706;10.384;2022-10-10T03:11:12;4.80;;;2.57;;
18933;SDS011;9599;53.706;10.384;2022-10-10T03:13:40;7.63;;;2.90;;
18933;SDS011;9599;53.706;10.384;2022-10-10T03:16:08;3.33;;;2.13;;
18933;SDS011;9599;53.706;10.384;2022-10-10T03:18:36;4.40;;;3.03;;
18933;SDS011;9599;53.706;10.384;2022-10-10T03:21:05;7.17;;;2.53;;
18933;SDS011;9599;53.706;10.384;2022-10-10T03:23:34;3.33;;;2.33;;
18933;SDS011;9599;53.706;10.384;2022-10-10T03:26:02;4.73;;;2.60;;
18933;SDS011;9599;53.706;10.384;2022-10-10T03:28:31;4.20;;;2.60;;
18933;SDS011;9599;53.706;10.384;2022-10-10T03:30:59;7.87;;;2.60;;
18933;SDS011;9599;53.706;10.384;2022-10-10T03:33:26;7.07;;;2.50;;
18933;SDS011;9599;53.706;10.384;2022-10-10T03:35:54;4.20;;;2.57;;
18933;SDS011;9599;53.706;10.384;2022-10-10T03:38:24;5.10;;;2.63;;
18933;SDS011;9599;53.706;10.384;2022-10-10T03:40:51;5.03;;;2.80;;
18933;SDS011;9599;53.706;10.384;2022-10-10T03:43:19;5.73;;;2.80;;
18933;SDS011;9599;53.706;10.384;2022-10-10T03:45:47;6.17;;;3.17;;
18933;SDS011;9599;53.706;10.384;2022-10-10T03:48:15;5.83;;;2.70;;
18933;SDS011;9599;53.706;10.384;2022-10-10T03:50:43;5.33;;;2.90;;
18933;SDS011;9599;53.706;10.384;2022-10-10T03:53:11;5.30;;;2.60;;
18933;SDS011;9599;53.706;10.384;2022-10-10T03:55:41;5.20;;;2.70;;
18933;SDS011;9599;53.706;10.384;2022-10-10T03:58:09;9.00;;;2.57;;
18933;SDS011;9599;53.706;10.384;2022-10-10T04:00:37;6.43;;;2.90;;
18933;SDS011;9599;53.706;10.384;2022-10-10T04:03:06;7.60;;;2.97;;
18933;SDS011;9599;53.706;10.384;2022-10-10T04:05:34;9.77;;;2.90;;
18933;SDS011;9599;53.706;10.384;2022-10-10T04:08:03;5.57;;;2.80;;
18933;SDS011;9599;53.706;10.384;2022-10-10T04:10:31;6.53;;;2.80;;
18933;SDS011;9599;53.706;10.384;2022-10-10T04:13:01;5.70;;;2.70;;
18933;SDS011;9599;53.706;10.384;2022-10-10T04:15:29;7.47;;;3.00;;
18933;SDS011;9599;53.706;10.384;2022-10-10T04:17:57;3.93;;;2.70;;
18933;SDS011;9599;53.706;10.384;2022-10-10T04:20:25;5.67;;;2.70;;
18933;SDS011;9599;53.706;10.384;2022-10-10T04:22:53;8.73;;;3.17;;
18933;SDS011;9599;53.706;10.384;2022-10-10T04:25:21;6.20;;;2.87;;
18933;SDS011;9599;53.706;10.384;2022-10-10T04:27:49;6.67;;;3.00;;
18933;SDS011;9599;53.706;10.384;2022-10-10T04:30:18;6.17;;;3.07;;
18933;SDS011;9599;53.706;10.384;2022-10-10T04:32:46;5.77;;;3.23;;
18933;SDS011;9599;53.706;10.384;2022-10-10T04:35:15;5.70;;;2.77;;
18933;SDS011;9599;53.706;10.384;2022-10-10T04:37:43;5.00;;;2.80;;
18933;SDS011;9599;53.706;10.384;2022-10-10T04:40:11;5.10;;;3.00;;
18933;SDS011;9599;53.706;10.384;2022-10-10T04:42:39;6.27;;;3.13;;
18933;SDS011;9599;53.706;10.384;2022-10-10T04:45:07;3.83;;;3.10;;
18933;SDS011;9599;53.706;10.384;2022-10-10T04:47:37;5.73;;;3.03;;
18933;SDS011;9599;53.706;10.384;2022-10-10T04:50:05;7.70;;;3.20;;
18933;SDS011;9599;53.706;10.384;2022-10-10T04:52:33;7.17;;;3.00;;
18933;SDS011;9599;53.706;10.384;2022-10-10T04:55:01;7.77;;;3.20;;
18933;SDS011;9599;53.706;10.384;2022-10-10T04:57:29;4.80;;;3.40;;
18933;SDS011;9599;53.706;10.384;2022-10-10T04:59:57;5.03;;;2.97;;
18933;SDS011;9599;53.706;10.384;2022-10-10T05:02:25;6.83;;;3.00;;
18933;SDS011;9599;53.706;10.384;2022-10-10T05:04:54;6.07;;;3.20;;
18933;SDS011;9599;53.706;10.384;2022-10-10T05:07:22;5.97;;;3.07;;
18933;SDS011;9599;53.706;10.384;2022-10-10T05:09:51;7.43;;;3.43;;
18933;SDS011;9599;53.706;10.384;2022-10-10T05:12:18;7.60;;;3.07;;
18933;SDS011;9599;53.706;10.384;2022-10-10T05:14:46;4.07;;;3.10;;
18933;SDS011;9599;53.706;10.384;2022-10-10T05:17:14;6.40;;;3.13;;
18933;SDS011;9599;53.706;10.384;2022-10-10T05:19:42;6.27;;;3.23;;
18933;SDS011;9599;53.706;10.384;2022-10-10T05:22:11;4.83;;;3.50;;
18933;SDS011;9599;53.706;10.384;2022-10-10T05:24:39;7.53;;;3.40;;
18933;SDS011;9599;53.706;10.384;2022-10-10T05:27:07;4.60;;;3.17;;
18933;SDS011;9599;53.706;10.384;2022-10-10T05:29:35;5.70;;;3.50;;
18933;SDS011;9599;53.706;10.384;2022-10-10T05:32:03;7.63;;;3.50;;
18933;SDS011;9599;53.706;10.384;2022-10-10T05:34:35;7.13;;;3.40;;
18933;SDS011;9599;53.706;10.384;2022-10-10T05:37:03;6.33;;;3.63;;
18933;SDS011;9599;53.706;10.384;2022-10-10T05:39:33;5.67;;;3.37;;
18933;SDS011;9599;53.706;10.384;2022-10-10T05:42:01;5.50;;;3.07;;
18933;SDS011;9599;53.706;10.384;2022-10-10T05:44:30;8.17;;;3.60;;
18933;SDS011;9599;53.706;10.384;2022-10-10T05:46:58;6.50;;;3.47;;
18933;SDS011;9599;53.706;10.384;2022-10-10T05:49:26;6.50;;;3.57;;
18933;SDS011;9599;53.706;10.384;2022-10-10T05:51:54;7.77;;;3.73;;
18933;SDS011;9599;53.706;10.384;2022-10-10T05:54:22;6.83;;;3.47;;
18933;SDS011;9599;53.706;10.384;2022-10-10T05:56:51;7.97;;;3.53;;
18933;SDS011;9599;53.706;10.384;2022-10-10T05:59:19;5.43;;;3.23;;
18933;SDS011;9599;53.706;10.384;2022-10-10T06:01:47;5.27;;;3.20;;
18933;SDS011;9599;53.706;10.384;2022-10-10T06:04:15;6.47;;;3.70;;
18933;SDS011;9599;53.706;10.384;2022-10-10T06:06:43;9.30;;;3.60;;
18933;SDS011;9599;53.706;10.384;2022-10-10T06:09:11;6.13;;;3.57;;
18933;SDS011;9599;53.706;10.384;2022-10-10T06:11:39;8.17;;;3.73;;
18933;SDS011;9599;53.706;10.384;2022-10-10T06:14:08;8.30;;;3.97;;
18933;SDS011;9599;53.706;10.384;2022-10-10T06:16:36;6.73;;;3.70;;
18933;SDS011;9599;53.706;10.384;2022-10-10T06:19:05;6.00;;;3.60;;
18933;SDS011;9599;53.706;10.384;2022-10-10T06:21:39;7.57;;;3.30;;
18933;SDS011;9599;53.706;10.384;2022-10-10T06:24:07;6.53;;;3.50;;
18933;SDS011;9599;53.706;10.384;2022-10-10T06:26:35;5.93;;;3.40;;
18933;SDS011;9599;53.706;10.384;2022-10-10T06:29:03;6.77;;;3.80;;
18933;SDS011;9599;53.706;10.384;2022-10-10T06:31:33;6.07;;;3.70;;
18933;SDS011;9599;53.706;10.384;2022-10-10T06:34:04;6.20;;;3.47;;
18933;SDS011;9599;53.706;10.384;2022-10-10T06:36:33;6.50;;;3.70;;
18933;SDS011;9599;53.706;10.384;2022-10-10T06:39:01;5.20;;;3.60;;
18933;SDS011;9599;53.706;10.384;2022-10-10T06:41:29;6.83;;;3.97;;
18933;SDS011;9599;53.706;10.384;2022-10-10T06:43:57;5.93;;;3.50;;
18933;SDS011;9599;53.706;10.384;2022-10-10T06:46:25;8.53;;;3.93;;
18933;SDS011;9599;53.706;10.384;2022-10-10T06:48:54;9.90;;;4.20;;
18933;SDS011;9599;53.706;10.384;2022-10-10T06:51:22;6.30;;;3.90;;
18933;SDS011;9599;53.706;10.384;2022-10-10T06:53:51;8.87;;;4.03;;
18933;SDS011;9599;53.706;10.384;2022-10-10T06:56:19;8.27;;;3.90;;
18933;SDS011;9599;53.706;10.384;2022-10-10T06:58:52;6.70;;;3.73;;
18933;SDS011;9599;53.706;10.384;2022-10-10T07:01:21;5.70;;;3.90;;
18933;SDS011;9599;53.706;10.384;2022-10-10T07:03:51;7.30;;;3.67;;
18933;SDS011;9599;53.706;10.384;2022-10-10T07:06:20;8.07;;;4.10;;
18933;SDS011;9599;53.706;10.384;2022-10-10T07:08:48;7.03;;;4.03;;
18933;SDS011;9599;53.706;10.384;2022-10-10T07:11:16;13.10;;;4.30;;
18933;SDS011;9599;53.706;10.384;2022-10-10T07:13:44;5.03;;;3.60;;
18933;SDS011;9599;53.706;10.384;2022-10-10T07:16:12;8.43;;;3.80;;
18933;SDS011;9599;53.706;10.384;2022-10-10T07:18:40;6.20;;;4.10;;
18933;SDS011;9599;53.706;10.384;2022-10-10T07:21:08;6.57;;;3.83;;
18933;SDS011;9599;53.706;10.384;2022-10-10T07:23:37;5.93;;;4.10;;
18933;SDS011;9599;53.706;10.384;2022-10-10T07:26:05;5.93;;;3.97;;
18933;SDS011;9599;53.706;10.384;2022-10-10T07:28:36;6.83;;;3.80;;
18933;SDS011;9599;53.706;10.384;2022-10-10T07:31:05;7.73;;;3.73;;
18933;SDS011;9599;53.706;10.384;2022-10-10T07:33:36;6.17;;;4.00;;
18933;SDS011;9599;53.706;10.384;2022-10-10T07:36:05;9.03;;;4.00;;
18933;SDS011;9599;53.706;10.384;2022-10-10T07:38:34;4.77;;;3.63;;
18933;SDS011;9599;53.706;10.384;2022-10-10T07:41:05;5.83;;;3.67;;
18933;SDS011;9599;53.706;10.384;2022-10-10T07:43:33;5.93;;;3.60;;
18933;SDS011;9599;53.706;10.384;2022-10-10T07:46:02;6.27;;;3.53;;
18933;SDS011;9599;53.706;10.384;2022-10-10T07:48:36;8.20;;;3.70;;
18933;SDS011;9599;53.706;10.384;2022-10-10T07:51:05;7.30;;;3.77;;
18933;SDS011;9599;53.706;10.384;2022-10-10T07:53:33;5.77;;;3.43;;
18933;SDS011;9599;53.706;10.384;2022-10-10T07:56:02;6.27;;;3.47;;
18933;SDS011;9599;53.706;10.384;2022-10-10T07:58:33;6.50;;;3.20;;
18933;SDS011;9599;53.706;10.384;2022-10-10T08:01:01;6.00;;;3.53;;
18933;SDS011;9599;53.706;10.384;2022-10-10T08:03:30;7.00;;;3.60;;
18933;SDS011;9599;53.706;10.384;2022-10-10T08:06:00;5.07;;;3.43;;
18933;SDS011;9599;53.706;10.384;2022-10-10T08:08:29;7.60;;;3.00;;
18933;SDS011;9599;53.706;10.384;2022-10-10T08:11:00;5.47;;;3.27;;
18933;SDS011;9599;53.706;10.384;2022-10-10T08:13:31;4.87;;;2.80;;
18933;SDS011;9599;53.706;10.384;2022-10-10T08:16:00;6.53;;;3.20;;
18933;SDS011;9599;53.706;10.384;2022-10-10T08:18:28;6.10;;;3.17;;
18933;SDS011;9599;53.706;10.384;2022-10-10T08:20:59;5.00;;;3.50;;
18933;SDS011;9599;53.706;10.384;2022-10-10T08:23:28;6.47;;;3.10;;
18933;SDS011;9599;53.706;10.384;2022-10-10T08:25:56;5.57;;;3.40;;
18933;SDS011;9599;53.706;10.384;2022-10-10T08:28:25;5.20;;;2.83;;
18933;SDS011;9599;53.706;10.384;2022-10-10T08:30:54;5.70;;;3.33;;
18933;SDS011;9599;53.706;10.384;2022-10-10T08:33:24;6.03;;;2.70;;
18933;SDS011;9599;53.706;10.384;2022-10-10T08:35:53;4.93;;;3.00;;
18933;SDS011;9599;53.706;10.384;2022-10-10T08:38:21;6.23;;;3.10;;
18933;SDS011;9599;53.706;10.384;2022-10-10T08:40:49;5.03;;;2.70;;
18933;SDS011;9599;53.706;10.384;2022-10-10T08:43:22;4.70;;;3.10;;
18933;SDS011;9599;53.706;10.384;2022-10-10T08:45:58;5.63;;;3.10;;
18933;SDS011;9599;53.706;10.384;2022-10-10T08:48:35;5.03;;;2.77;;
18933;SDS011;9599;53.706;10.384;2022-10-10T08:51:05;5.37;;;3.13;;
18933;SDS011;9599;53.706;10.384;2022-10-10T08:53:39;5.07;;;2.93;;
18933;SDS011;9599;53.706;10.384;2022-10-10T08:56:12;4.90;;;2.93;;
18933;SDS011;9599;53.706;10.384;2022-10-10T08:58:44;4.93;;;2.70;;
18933;SDS011;9599;53.706;10.384;2022-10-10T09:01:16;5.03;;;2.70;;
18933;SDS011;9599;53.706;10.384;2022-10-10T09:03:53;4.70;;;2.67;;
18933;SDS011;9599;53.706;10.384;2022-10-10T09:06:26;3.70;;;2.93;;
18933;SDS011;9599;53.706;10.384;2022-10-10T09:09:03;5.57;;;2.70;;
18933;SDS011;9599;53.706;10.384;2022-10-10T09:11:40;4.63;;;3.10;;
18933;SDS011;9599;53.706;10.384;2022-10-10T09:14:21;5.73;;;2.70;;
18933;SDS011;9599;53.706;10.384;2022-10-10T09:17:02;6.30;;;2.60;;
18933;SDS011;9599;53.706;10.384;2022-10-10T09:19:42;2.87;;;2.60;;
18933;SDS011;9599;53.706;10.384;2022-10-10T09:22:21;3.17;;;2.40;;
18933;SDS011;9599;53.706;10.384;2022-10-10T09:24:53;5.93;;;2.60;;
18933;SDS011;9599;53.706;10.384;2022-10-10T09:27:26;4.13;;;2.90;;
18933;SDS011;9599;53.706;10.384;2022-10-10T09:30:00;4.97;;;3.00;;
18933;SDS011;9599;53.706;10.384;2022-10-10T09:32:32;5.27;;;3.07;;
18933;SDS011;9599;53.706;10.384;2022-10-10T09:35:11;4.77;;;2.97;;
18933;SDS011;9599;53.706;10.384;2022-10-10T09:37:42;4.60;;;2.73;;
18933;SDS011;9599;53.706;10.384;2022-10-10T09:40:16;4.43;;;2.73;;
18933;SDS011;9599;53.706;10.384;2022-10-10T09:42:48;4.83;;;2.50;;
18933;SDS011;9599;53.706;10.384;2022-10-10T09:45:17;3.93;;;2.63;;
18933;SDS011;9599;53.706;10.384;2022-10-10T09:47:49;14.43;;;3.03;;
18933;SDS011;9599;53.706;10.384;2022-10-10T09:50:19;4.23;;;2.50;;
18933;SDS011;9599;53.706;10.384;2022-10-10T09:52:48;4.33;;;2.60;;
18933;SDS011;9599;53.706;10.384;2022-10-10T09:55:20;4.37;;;2.63;;
18933;SDS011;9599;53.706;10.384;2022-10-10T09:57:52;5.33;;;2.60;;
18933;SDS011;9599;53.706;10.384;2022-10-10T10:00:31;3.13;;;2.60;;
18933;SDS011;9599;53.706;10.384;2022-10-10T10:03:08;5.77;;;2.97;;
18933;SDS011;9599;53.706;10.384;2022-10-10T10:05:43;4.20;;;2.67;;
18933;SDS011;9599;53.706;10.384;2022-10-10T10:08:19;4.30;;;2.80;;
18933;SDS011;9599;53.706;10.384;2022-10-10T10:10:51;6.57;;;2.77;;
18933;SDS011;9599;53.706;10.384;2022-10-10T10:13:24;3.80;;;2.70;;
18933;SDS011;9599;53.706;10.384;2022-10-10T10:15:57;4.60;;;2.60;;
18933;SDS011;9599;53.706;10.384;2022-10-10T10:18:30;5.07;;;2.93;;
18933;SDS011;9599;53.706;10.384;2022-10-10T10:21:11;3.73;;;2.70;;
18933;SDS011;9599;53.706;10.384;2022-10-10T10:23:46;3.90;;;2.70;;
18933;SDS011;9599;53.706;10.384;2022-10-10T10:26:18;3.50;;;2.60;;
18933;SDS011;9599;53.706;10.384;2022-10-10T10:28:48;3.77;;;2.83;;
18933;SDS011;9599;53.706;10.384;2022-10-10T10:31:19;5.00;;;2.93;;
18933;SDS011;9599;53.706;10.384;2022-10-10T10:34:15;7.00;;;2.50;;
18933;SDS011;9599;53.706;10.384;2022-10-10T10:36:58;3.90;;;2.70;;
18933;SDS011;9599;53.706;10.384;2022-10-10T10:39:41;4.47;;;2.63;;
18933;SDS011;9599;53.706;10.384;2022-10-10T10:42:19;4.37;;;2.53;;
18933;SDS011;9599;53.706;10.384;2022-10-10T10:44:58;3.77;;;2.50;;
18933;SDS011;9599;53.706;10.384;2022-10-10T10:47:36;6.07;;;2.80;;
18933;SDS011;9599;53.706;10.384;2022-10-10T10:50:17;3.67;;;2.70;;
18933;SDS011;9599;53.706;10.384;2022-10-10T10:52:58;4.60;;;2.60;;
18933;SDS011;9599;53.706;10.384;2022-10-10T10:55:33;3.30;;;2.60;;
18933;SDS011;9599;53.706;10.384;2022-10-10T10:58:11;5.20;;;3.00;;
18933;SDS011;9599;53.706;10.384;2022-10-10T11:01:20;4.30;;;2.90;;
18933;SDS011;9599;53.706;10.384;2022-10-10T11:04:17;6.57;;;3.10;;
18933;SDS011;9599;53.706;10.384;2022-10-10T11:07:15;5.23;;;2.70;;
18933;SDS011;9599;53.706;10.384;2022-10-10T11:09:49;5.47;;;2.80;;
18933;SDS011;9599;53.706;10.384;2022-10-10T11:12:27;3.93;;;2.70;;
18933;SDS011;9599;53.706;10.384;2022-10-10T11:15:13;4.70;;;2.83;;
18933;SDS011;9599;53.706;10.384;2022-10-10T11:17:46;3.33;;;2.40;;
18933;SDS011;9599;53.706;10.384;2022-10-10T11:20:19;6.10;;;2.80;;
18933;SDS011;9599;53.706;10.384;2022-10-10T11:22:54;5.07;;;2.87;;
18933;SDS011;9599;53.706;10.384;2022-10-10T11:25:34;3.47;;;2.40;;
18933;SDS011;9599;53.706;10.384;2022-10-10T11:28:08;4.97;;;3.10;;
18933;SDS011;9599;53.706;10.384;2022-10-10T11:30:42;3.80;;;2.60;;
18933;SDS011;9599;53.706;10.384;2022-10-10T11:33:14;5.93;;;3.07;;
18933;SDS011;9599;53.706;10.384;2022-10-10T11:35:46;4.83;;;2.97;;
18933;SDS011;9599;53.706;10.384;2022-10-10T11:38:21;4.90;;;2.70;;
18933;SDS011;9599;53.706;10.384;2022-10-10T11:40:52;3.90;;;2.60;;
18933;SDS011;9599;53.706;10.384;2022-10-10T11:43:27;5.17;;;2.70;;
18933;SDS011;9599;53.706;10.384;2022-10-10T11:46:03;6.03;;;2.80;;
18933;SDS011;9599;53.706;10.384;2022-10-10T11:48:40;6.10;;;2.93;;
18933;SDS011;9599;53.706;10.384;2022-10-10T11:51:15;6.17;;;2.90;;
18933;SDS011;9599;53.706;10.384;2022-10-10T11:53:52;3.87;;;2.60;;
18933;SDS011;9599;53.706;10.384;2022-10-10T11:56:27;4.53;;;2.43;;
18933;SDS011;9599;53.706;10.384;2022-10-10T11:58:59;8.53;;;2.67;;
18933;SDS011;9599;53.706;10.384;2022-10-10T12:01:32;4.43;;;2.70;;
18933;SDS011;9599;53.706;10.384;2022-10-10T12:04:03;6.43;;;2.80;;
18933;SDS011;9599;53.706;10.384;2022-10-10T12:06:32;5.93;;;2.80;;
18933;SDS011;9599;53.706;10.384;2022-10-10T12:09:06;4.87;;;2.60;;
18933;SDS011;9599;53.706;10.384;2022-10-10T12:11:41;5.70;;;2.80;;
18933;SDS011;9599;53.706;10.384;2022-10-10T12:14:13;6.47;;;2.93;;
18933;SDS011;9599;53.706;10.384;2022-10-10T12:16:43;3.07;;;2.50;;
18933;SDS011;9599;53.706;10.384;2022-10-10T12:19:15;4.57;;;2.40;;
18933;SDS011;9599;53.706;10.384;2022-10-10T12:21:55;5.97;;;2.80;;
18933;SDS011;9599;53.706;10.384;2022-10-10T12:24:27;3.17;;;2.50;;
18933;SDS011;9599;53.706;10.384;2022-10-10T12:27:14;5.23;;;2.40;;
18933;SDS011;9599;53.706;10.384;2022-10-10T12:32:54;3.00;;;2.47;;
18933;SDS011;9599;53.706;10.384;2022-10-10T12:35:35;3.67;;;2.70;;
18933;SDS011;9599;53.706;10.384;2022-10-10T12:38:09;3.33;;;2.50;;
18933;SDS011;9599;53.706;10.384;2022-10-10T12:43:38;3.17;;;2.40;;
18933;SDS011;9599;53.706;10.384;2022-10-10T12:46:19;4.63;;;2.63;;
18933;SDS011;9599;53.706;10.384;2022-10-10T12:49:16;5.10;;;2.43;;
18933;SDS011;9599;53.706;10.384;2022-10-10T12:51:57;5.60;;;2.50;;
18933;SDS011;9599;53.706;10.384;2022-10-10T12:54:27;3.63;;;2.40;;
18933;SDS011;9599;53.706;10.384;2022-10-10T12:57:03;4.00;;;2.50;;
18933;SDS011;9599;53.706;10.384;2022-10-10T12:59:35;4.93;;;2.40;;
18933;SDS011;9599;53.706;10.384;2022-10-10T13:02:05;4.70;;;2.93;;
18933;SDS011;9599;53.706;10.384;2022-10-10T13:04:40;8.27;;;2.83;;
18933;SDS011;9599;53.706;10.384;2022-10-10T13:07:11;3.60;;;2.50;;
18933;SDS011;9599;53.706;10.384;2022-10-10T13:09:43;4.73;;;2.73;;
18933;SDS011;9599;53.706;10.384;2022-10-10T13:12:25;4.97;;;2.70;;
18933;SDS011;9599;53.706;10.384;2022-10-10T13:14:55;5.07;;;2.57;;
18933;SDS011;9599;53.706;10.384;2022-10-10T13:17:24;5.93;;;2.60;;
18933;SDS011;9599;53.706;10.384;2022-10-10T13:19:54;6.57;;;2.57;;
18933;SDS011;9599;53.706;10.384;2022-10-10T13:22:23;4.67;;;2.80;;
18933;SDS011;9599;53.706;10.384;2022-10-10T13:24:52;6.77;;;3.20;;
18933;SDS011;9599;53.706;10.384;2022-10-10T13:27:20;4.77;;;2.40;;
18933;SDS011;9599;53.706;10.384;2022-10-10T13:29:53;5.03;;;2.70;;
18933;SDS011;9599;53.706;10.384;2022-10-10T13:32:23;5.77;;;2.87;;
18933;SDS011;9599;53.706;10.384;2022-10-10T13:34:53;6.33;;;3.40;;
18933;SDS011;9599;53.706;10.384;2022-10-10T13:37:23;6.53;;;2.90;;
18933;SDS011;9599;53.706;10.384;2022-10-10T13:39:52;6.90;;;3.20;;
18933;SDS011;9599;53.706;10.384;2022-10-10T13:42:26;7.37;;;3.47;;
18933;SDS011;9599;53.706;10.384;2022-10-10T13:44:58;5.57;;;2.80;;
18933;SDS011;9599;53.706;10.384;2022-10-10T13:47:41;5.33;;;2.87;;
18933;SDS011;9599;53.706;10.384;2022-10-10T13:50:19;4.93;;;2.77;;
18933;SDS011;9599;53.706;10.384;2022-10-10T13:52:49;5.03;;;2.90;;
18933;SDS011;9599;53.706;10.384;2022-10-10T13:55:40;7.67;;;2.90;;
18933;SDS011;9599;53.706;10.384;2022-10-10T13:58:08;7.47;;;2.80;;
18933;SDS011;9599;53.706;10.384;2022-10-10T14:00:37;6.03;;;3.20;;
18933;SDS011;9599;53.706;10.384;2022-10-10T14:03:11;5.60;;;3.10;;
18933;SDS011;9599;53.706;10.384;2022-10-10T14:05:41;7.27;;;3.07;;
18933;SDS011;9599;53.706;10.384;2022-10-10T14:08:12;4.70;;;2.70;;
18933;SDS011;9599;53.706;10.384;2022-10-10T14:10:53;6.23;;;3.07;;
18933;SDS011;9599;53.706;10.384;2022-10-10T14:13:22;4.80;;;2.67;;
18933;SDS011;9599;53.706;10.384;2022-10-10T14:15:52;8.03;;;2.90;;
18933;SDS011;9599;53.706;10.384;2022-10-10T14:18:21;7.17;;;2.80;;
18933;SDS011;9599;53.706;10.384;2022-10-10T14:20:50;5.13;;;2.90;;
18933;SDS011;9599;53.706;10.384;2022-10-10T14:23:20;5.57;;;2.90;;
18933;SDS011;9599;53.706;10.384;2022-10-10T14:25:48;7.33;;;3.03;;
18933;SDS011;9599;53.706;10.384;2022-10-10T14:28:18;5.47;;;2.63;;
18933;SDS011;9599;53.706;10.384;2022-10-10T14:30:49;5.80;;;2.60;;
18933;SDS011;9599;53.706;10.384;2022-10-10T14:33:18;4.73;;;2.93;;
18933;SDS011;9599;53.706;10.384;2022-10-10T14:35:47;5.30;;;2.80;;
18933;SDS011;9599;53.706;10.384;2022-10-10T14:38:16;5.23;;;2.60;;
18933;SDS011;9599;53.706;10.384;2022-10-10T14:40:45;6.97;;;3.17;;
18933;SDS011;9599;53.706;10.384;2022-10-10T14:43:15;5.03;;;3.30;;
18933;SDS011;9599;53.706;10.384;2022-10-10T14:45:46;6.20;;;3.00;;
18933;SDS011;9599;53.706;10.384;2022-10-10T14:48:17;4.87;;;3.20;;
18933;SDS011;9599;53.706;10.384;2022-10-10T14:50:46;6.77;;;3.40;;
18933;SDS011;9599;53.706;10.384;2022-10-10T14:53:16;6.13;;;3.13;;
18933;SDS011;9599;53.706;10.384;2022-10-10T14:55:44;6.63;;;3.27;;
18933;SDS011;9599;53.706;10.384;2022-10-10T14:58:13;5.33;;;3.10;;
18933;SDS011;9599;53.706;10.384;2022-10-10T15:00:42;5.30;;;3.00;;
18933;SDS011;9599;53.706;10.384;2022-10-10T15:03:10;7.10;;;3.00;;
18933;SDS011;9599;53.706;10.384;2022-10-10T15:05:40;6.27;;;3.33;;
18933;SDS011;9599;53.706;10.384;2022-10-10T15:08:09;5.87;;;3.20;;
18933;SDS011;9599;53.706;10.384;2022-10-10T15:10:39;6.43;;;3.10;;
18933;SDS011;9599;53.706;10.384;2022-10-10T15:13:08;6.93;;;3.50;;
18933;SDS011;9599;53.706;10.384;2022-10-10T15:15:36;4.57;;;2.90;;
18933;SDS011;9599;53.706;10.384;2022-10-10T15:18:04;6.40;;;3.20;;
18933;SDS011;9599;53.706;10.384;2022-10-10T15:20:53;7.23;;;3.30;;
18933;SDS011;9599;53.706;10.384;2022-10-10T15:23:21;8.07;;;3.30;;